Forside
METAR-TAF:

METAR-TAF

Lufthavne :

Gibraltar Lufthavn

Gibraltar, Gibraltar

Breddekreds: 36-09N, længdekreds: 005-21W, højde: 5 m

Aktuelle vejr

Denne rapport blev lavet for 1 time og 18 minutter siden, kl. 16:50 UTC
Vind 12 kt fra sydvest
Temperatur 31°C
Fugtighed 22%
Tryk 1014 hPa
Sigt 10 km eller mere

METAR: LXGB 141650Z AUTO 22012KT 9999 // NCD 31/07 Q1014

Tid: 20:08 (18:08 UTC)

Vejrudsigter

Denne rapport blev lavet for 4 timer og 46 minutter siden, kl. 13:22 UTC
Foreløbig gælder fra 14 på 15 UTC til 14 på 22 UTC
Vind 10 kt fra vestsydvest
Sigt 10 km eller mere
Nogle få skyer i en højde af 3000 ft
Midlertidig
fra 14 på 15 UTC til 14 på 18 UTC
Vind 13 kt fra sydsydvest
Sandsynlighed 30% :
Midlertidig
fra 14 på 15 UTC til 14 på 17 UTC
Vind 15 kt fra syd med vindstød på up til 25 kt

TAF: LXGB 141322Z 1415/1422 24010KT 9999 FEW030 TEMPO 1415/1418 21013KT 520001 PROB30 TEMPO 1415/1417 19015G25KT 530001

Vejrobservationer og prognoser fra mere end 4000 lufthavne (METAR og TAF).

De gule og røde prikker repræsenterer de meteorologiske stationer.

Flyt musen over at se navnet på stationen.

Så klik over at se vejr observationer og prognoser.

At skifte det kort: Klik på de grønne knapper med et sort kors for at zoome ind; på den grønne knap med en bindestreg for at zoome ud; eller på de grønne pile for tilstødende kort.


METAR-TAF: